Time;durP1;ratioP1;P1;durP2;ratioP2;P2;SDS_P1;SDS_P2;PMS_P1;PMS_P2;Temp;Humidity;BMP_temperature;BMP_pressure;BME280_temperature;BME280_humidity;BME280_pressure;Samples;Min_cycle;Max_cycle;Signal;HPM_P1;HPM_P2
2022/08/21 00:01:48;;;;;;;13.83;8.90;;;;;;;23.29;77.69;96496.84;5069723;28;20189;-75
2022/08/21 00:05:10;;;;;;;12.90;9.30;;;;;;;23.22;77.80;96486.13;5069967;28;20671;-75
2022/08/21 00:08:31;;;;;;;11.47;9.50;;;;;;;22.89;79.27;96451.84;5068320;28;20188;-76
2022/08/21 00:11:54;;;;;;;13.53;9.13;;;;;;;22.63;79.82;96443.97;5067862;28;20186;-75
2022/08/21 00:15:15;;;;;;;10.60;8.73;;;;;;;22.78;77.83;96447.66;5069339;28;20642;-75
2022/08/21 00:18:36;;;;;;;12.70;8.77;;;;;;;23.16;75.93;96441.81;5069738;28;20202;-75
2022/08/21 00:21:57;;;;;;;14.43;8.70;;;;;;;23.69;75.43;96425.56;5069043;28;20202;-75
2022/08/21 00:25:17;;;;;;;11.67;9.90;;;;;;;24.10;75.80;96421.94;5066950;28;20266;-75
2022/08/21 00:28:38;;;;;;;16.73;9.90;;;;;;;24.20;76.07;96414.63;5068148;28;20197;-75
2022/08/21 00:31:59;;;;;;;12.07;9.13;;;;;;;24.09;77.22;96393.81;5069413;28;20213;-75
2022/08/21 00:35:20;;;;;;;14.27;9.10;;;;;;;24.22;77.16;96398.56;5069036;28;20198;-76
2022/08/21 00:38:41;;;;;;;13.93;9.63;;;;;;;24.16;77.00;96410.66;5067882;28;20186;-75
2022/08/21 00:42:01;;;;;;;18.43;9.10;;;;;;;24.19;75.50;96386.50;5067348;28;20654;-75
2022/08/21 00:45:22;;;;;;;12.73;8.73;;;;;;;24.38;75.48;96400.34;5068675;28;20299;-76
2022/08/21 00:48:44;;;;;;;16.23;9.00;;;;;;;24.28;75.74;96391.78;5069004;28;20191;-77
2022/08/21 00:52:08;;;;;;;11.33;9.20;;;;;;;24.15;75.70;96392.31;5068609;28;20248;-76
2022/08/21 00:55:29;;;;;;;14.70;9.03;;;;;;;24.17;75.75;96398.25;5066458;28;20297;-76
2022/08/21 00:58:51;;;;;;;12.00;8.53;;;;;;;24.08;75.51;96386.03;5067933;28;20191;-76
2022/08/21 01:02:14;;;;;;;13.63;8.63;;;;;;;23.56;76.48;96384.75;5069170;28;20278;-76
2022/08/21 01:05:35;;;;;;;16.37;9.00;;;;;;;23.13;78.06;96378.75;5051053;28;20256;-76
2022/08/21 01:08:55;;;;;;;13.97;9.83;;;;;;;23.08;78.72;96390.81;5068039;28;20337;-76
2022/08/21 01:12:17;;;;;;;13.60;9.53;;;;;;;22.54;80.88;96398.22;5049353;28;20194;-75
2022/08/21 01:15:38;;;;;;;13.27;8.97;;;;;;;22.88;79.17;96414.03;5068359;28;20190;-76
2022/08/21 01:18:59;;;;;;;10.20;8.77;;;;;;;23.14;77.65;96419.22;5050858;28;20192;-75
2022/08/21 01:22:20;;;;;;;10.43;7.57;;;;;;;23.39;75.46;96434.13;5068633;28;20636;-75
2022/08/21 01:25:45;;;;;;;11.33;8.23;;;;;;;23.64;76.20;96427.88;5067105;28;20203;-76
2022/08/21 01:29:12;;;;;;;12.87;8.80;;;;;;;23.42;77.30;96423.25;5058305;28;20190;-75
2022/08/21 01:32:33;;;;;;;13.93;9.23;;;;;;;23.11;78.32;96436.22;5074966;28;20220;-75
2022/08/21 01:35:56;;;;;;;15.43;9.27;;;;;;;22.97;79.59;96426.28;5075002;28;20193;-75
2022/08/21 01:39:16;;;;;;;15.77;9.37;;;;;;;22.80;80.09;96431.66;5074637;28;20213;-75
2022/08/21 01:42:39;;;;;;;12.53;9.80;;;;;;;22.70;80.09;96433.59;5069812;28;20211;-74
2022/08/21 01:45:59;;;;;;;12.93;9.77;;;;;;;22.57;81.30;96412.91;5067394;28;20184;-74
2022/08/21 01:49:20;;;;;;;15.80;10.97;;;;;;;22.73;81.16;96417.47;5067774;28;20201;-75
2022/08/21 01:52:40;;;;;;;17.20;10.53;;;;;;;23.05;80.59;96407.81;5067526;28;20232;-76
2022/08/21 01:56:03;;;;;;;16.30;10.13;;;;;;;23.16;79.83;96404.03;5066159;28;20309;-75
2022/08/21 01:59:23;;;;;;;16.87;9.90;;;;;;;23.28;79.50;96395.63;5048042;28;20218;-74
2022/08/21 02:02:44;;;;;;;15.03;9.90;;;;;;;23.26;78.10;96386.22;5067418;28;20209;-74
2022/08/21 02:06:06;;;;;;;15.13;9.50;;;;;;;23.17;79.26;96385.38;5067293;28;20686;-75
2022/08/21 02:09:29;;;;;;;15.40;9.77;;;;;;;23.26;78.62;96383.56;5051738;28;20185;-75
2022/08/21 02:12:50;;;;;;;12.80;9.20;;;;;;;23.08;78.65;96372.31;5065546;28;20231;-75
2022/08/21 02:16:31;;;;;;;12.90;9.67;;;;;;;22.87;80.40;96380.69;5066332;28;20317;-75
2022/08/21 02:19:51;;;;;;;13.57;9.70;;;;;;;22.78;81.63;96380.81;5067012;28;20569;-75
2022/08/21 02:23:12;;;;;;;12.53;9.47;;;;;;;22.78;80.62;96372.91;5067091;28;20197;-75
2022/08/21 02:26:39;;;;;;;14.37;10.73;;;;;;;22.77;81.74;96381.81;5048450;28;20286;-75
2022/08/21 02:29:59;;;;;;;14.83;9.77;;;;;;;23.04;81.53;96400.06;5047312;28;20208;-75
2022/08/21 02:33:20;;;;;;;11.73;9.63;;;;;;;23.41;79.56;96393.34;5065615;28;20641;-75
2022/08/21 02:36:41;;;;;;;16.30;9.87;;;;;;;23.71;77.79;96399.78;5066825;28;20200;-74
2022/08/21 02:40:04;;;;;;;14.53;8.30;;;;;;;23.72;78.18;96401.44;5066931;28;20217;-75
2022/08/21 02:43:25;;;;;;;13.13;9.37;;;;;;;23.83;77.46;96397.63;5065481;28;20280;-75
2022/08/21 02:46:46;;;;;;;13.73;9.10;;;;;;;23.74;77.80;96396.78;5065207;28;20224;-74
2022/08/21 02:50:06;;;;;;;15.30;10.40;;;;;;;23.66;78.21;96398.66;5066371;28;20190;-75
2022/08/21 02:53:27;;;;;;;13.10;9.37;;;;;;;23.66;77.91;96407.38;5066579;28;20248;-74
2022/08/21 02:56:48;;;;;;;10.60;8.00;;;;;;;23.79;76.98;96418.28;5067004;28;20809;-74
2022/08/21 03:00:10;;;;;;;12.67;8.57;;;;;;;23.66;76.91;96420.59;5065070;28;20199;-75
2022/08/21 03:03:31;;;;;;;14.60;8.27;;;;;;;23.61;77.24;96424.75;5065674;28;20205;-75
2022/08/21 03:06:51;;;;;;;10.27;7.60;;;;;;;23.52;77.19;96438.94;5066752;28;20688;-75
2022/08/21 03:10:13;;;;;;;10.80;7.93;;;;;;;23.47;77.43;96438.63;5067321;28;20190;-76
2022/08/21 03:13:35;;;;;;;10.77;7.73;;;;;;;23.50;75.97;96433.81;5065684;28;20282;-75
2022/08/21 03:16:55;;;;;;;10.77;7.93;;;;;;;23.42;76.85;96447.88;5065157;28;20196;-76
2022/08/21 03:20:16;;;;;;;11.67;7.60;;;;;;;23.51;76.02;96453.16;5066610;28;20197;-75
2022/08/21 03:23:39;;;;;;;14.67;8.33;;;;;;;23.42;75.53;96453.16;5066624;28;20190;-75
2022/08/21 03:27:01;;;;;;;10.90;7.43;;;;;;;23.27;76.14;96456.56;5066502;28;20626;-75
2022/08/21 03:30:22;;;;;;;10.50;7.77;;;;;;;23.22;76.36;96461.50;5064839;28;20189;-76
2022/08/21 03:33:43;;;;;;;12.13;8.17;;;;;;;22.96;77.96;96466.88;5065177;28;20223;-75
2022/08/21 03:37:03;;;;;;;14.80;8.40;;;;;;;22.65;80.12;96485.06;5066324;28;20188;-77
2022/08/21 03:40:24;;;;;;;13.50;8.70;;;;;;;22.73;80.02;96472.91;5066465;28;20239;-75
2022/08/21 03:43:45;;;;;;;12.87;9.30;;;;;;;22.55;81.18;96472.94;5081068;28;20267;-75
2022/08/21 03:47:05;;;;;;;13.97;7.93;;;;;;;22.49;80.77;96490.25;5083255;28;20743;-75
2022/08/21 03:50:27;;;;;;;11.70;7.80;;;;;;;22.57;79.47;96484.16;5065529;28;20192;-75
2022/08/21 03:53:47;;;;;;;10.40;7.53;;;;;;;22.74;78.41;96493.84;5067584;28;20249;-75
2022/08/21 03:57:09;;;;;;;11.67;8.30;;;;;;;22.14;79.01;96453.41;5041324;28;20583;-75
2022/08/21 04:00:30;;;;;;;13.30;9.33;;;;;;;22.17;80.58;96495.31;5060376;28;20235;-77
2022/08/21 04:03:51;;;;;;;10.93;8.27;;;;;;;22.06;81.16;96497.38;5068470;28;20205;-75
2022/08/21 04:07:11;;;;;;;14.23;8.83;;;;;;;22.08;79.85;96501.50;5090083;28;20199;-75
2022/08/21 04:10:32;;;;;;;14.40;8.67;;;;;;;22.00;80.19;96501.44;5074020;28;20199;-75
2022/08/21 04:13:53;;;;;;;14.63;8.77;;;;;;;21.85;80.08;96473.97;5070624;28;20311;-76
2022/08/21 04:17:15;;;;;;;12.60;7.53;;;;;;;22.03;79.73;96509.03;5072605;28;20204;-76
2022/08/21 04:20:36;;;;;;;12.17;6.83;;;;;;;22.15;78.83;96510.47;5088962;28;20187;-75
2022/08/21 04:24:00;;;;;;;9.87;6.53;;;;;;;22.14;78.61;96514.09;5071471;28;20672;-75
2022/08/21 04:27:22;;;;;;;12.13;7.30;;;;;;;22.31;77.21;96517.66;5089413;28;20741;-75
2022/08/21 04:30:42;;;;;;;9.67;6.47;;;;;;;22.23;78.24;96510.53;5087749;28;20205;-76
2022/08/21 04:34:04;;;;;;;10.10;6.63;;;;;;;22.07;78.49;96514.84;5079727;28;20324;-74
2022/08/21 04:37:25;;;;;;;11.63;4.93;;;;;;;21.96;77.34;96508.00;5069016;28;20566;-75
2022/08/21 04:40:47;;;;;;;12.13;5.23;;;;;;;22.01;77.19;96503.09;5068890;28;20587;-75
2022/08/21 04:44:08;;;;;;;8.17;4.70;;;;;;;22.06;76.76;96500.00;5068586;28;20282;-73
2022/08/21 04:47:29;;;;;;;9.10;4.63;;;;;;;22.16;76.87;96498.94;5067113;28;20193;-75
2022/08/21 04:50:49;;;;;;;9.03;4.63;;;;;;;22.01;76.82;96473.28;5068076;28;20754;-74
2022/08/21 04:53:50;;;;;;;9.27;5.20;;;;;;;22.13;76.92;96501.06;5068349;28;20271;-75
2022/08/21 04:56:50;;;;;;;10.73;5.17;;;;;;;22.07;77.04;96499.03;5068389;28;20235;-74
2022/08/21 05:00:13;;;;;;;10.60;5.37;;;;;;;22.08;77.78;96488.31;5066994;28;20276;-75
2022/08/21 05:03:34;;;;;;;7.20;4.90;;;;;;;21.88;78.12;96495.56;5068250;28;20679;-75
2022/08/21 05:06:54;;;;;;;7.00;4.43;;;;;;;21.93;77.50;96503.03;5053056;28;20192;-75
2022/08/21 05:10:15;;;;;;;8.63;5.23;;;;;;;22.16;77.21;96506.84;5052652;28;20189;-75
2022/08/21 05:13:42;;;;;;;12.13;4.90;;;;;;;22.18;75.14;96501.41;5051315;28;20243;-75
2022/08/21 05:17:04;;;;;;;6.07;3.60;;;;;;;22.21;74.03;96496.66;5048783;28;20661;-74
2022/08/21 05:20:24;;;;;;;10.63;4.60;;;;;;;22.13;73.76;96499.25;5068178;28;20240;-75
2022/08/21 05:23:48;;;;;;;10.80;4.83;;;;;;;22.21;74.89;96491.38;5068134;28;20191;-75
2022/08/21 05:27:09;;;;;;;11.53;4.67;;;;;;;22.26;75.49;96499.66;5067396;28;20222;-74
2022/08/21 05:30:29;;;;;;;8.00;4.70;;;;;;;22.13;76.31;96487.88;5066266;28;20201;-75
2022/08/21 05:33:50;;;;;;;8.57;4.83;;;;;;;22.26;75.54;96493.53;5066885;28;20220;-74
2022/08/21 05:37:12;;;;;;;8.93;4.30;;;;;;;22.15;75.21;96492.00;5052461;28;20682;-74
2022/08/21 05:40:32;;;;;;;6.53;4.57;;;;;;;22.12;76.21;96491.47;5067909;28;20202;-75
2022/08/21 05:43:55;;;;;;;8.70;4.97;;;;;;;22.11;77.08;96490.66;5051012;28;20187;-76
2022/08/21 05:47:23;;;;;;;9.77;5.20;;;;;;;22.17;77.22;96484.78;5047666;28;20190;-76
2022/08/21 05:50:45;;;;;;;8.00;5.07;;;;;;;22.11;76.57;96490.66;5066770;28;20193;-75
2022/08/21 05:54:06;;;;;;;8.50;5.93;;;;;;;22.17;76.34;96490.03;5067513;28;20283;-75
2022/08/21 05:57:27;;;;;;;10.33;5.73;;;;;;;22.19;76.42;96493.34;5078082;28;20204;-75
2022/08/21 06:00:48;;;;;;;9.70;5.37;;;;;;;22.32;76.42;96490.28;5067446;28;20751;-75
2022/08/21 06:04:10;;;;;;;8.77;4.97;;;;;;;22.44;76.19;96492.50;5077556;28;20205;-77
2022/08/21 06:07:31;;;;;;;8.80;5.17;;;;;;;22.39;75.88;96478.97;5056942;28;20322;-76
2022/08/21 06:10:51;;;;;;;7.90;5.00;;;;;;;22.80;74.68;96495.03;5085637;28;20190;-75
2022/08/21 06:14:12;;;;;;;8.63;5.20;;;;;;;23.22;72.61;96493.22;5073471;28;20227;-76
2022/08/21 06:17:32;;;;;;;9.87;4.40;;;;;;;23.51;70.92;96485.72;5065874;28;20191;-77
2022/08/21 06:24:40;;;;;;;12.17;6.87;;;;;;;23.94;67.89;96482.78;5049080;28;20208;-77
2022/08/21 06:28:00;;;;;;;18.87;9.70;;;;;;;24.12;68.09;96504.63;5067629;28;20200;-76
2022/08/21 06:31:22;;;;;;;10.93;7.37;;;;;;;24.28;66.75;96503.75;5042276;28;20226;-75
2022/08/21 06:34:43;;;;;;;12.87;5.50;;;;;;;24.41;65.95;96503.25;5085477;28;20568;-76
2022/08/21 06:38:04;;;;;;;13.43;4.70;;;;;;;24.52;65.53;96500.25;5067376;28;20195;-76
2022/08/21 06:41:25;;;;;;;13.03;6.47;;;;;;;24.71;65.00;96510.47;5067093;28;20216;-77
2022/08/21 06:44:47;;;;;;;10.00;6.30;;;;;;;24.87;64.74;96508.59;5081643;28;20258;-75
2022/08/21 06:48:10;;;;;;;10.80;5.77;;;;;;;24.80;64.82;96505.00;5085104;28;20315;-76
2022/08/21 06:51:31;;;;;;;16.47;6.27;;;;;;;25.11;64.43;96512.16;5085400;28;20194;-76
2022/08/21 06:54:52;;;;;;;9.67;5.03;;;;;;;25.24;62.98;96517.75;5063424;28;21075;-76
2022/08/21 06:58:13;;;;;;;15.43;5.30;;;;;;;25.58;62.47;96516.41;5065099;28;20666;-77
2022/08/21 07:01:36;;;;;;;6.97;4.80;;;;;;;25.61;62.33;96515.25;5065866;28;20197;-76
2022/08/21 07:04:57;;;;;;;11.90;5.30;;;;;;;25.56;61.98;96522.88;5062942;28;20725;-77
2022/08/21 07:08:18;;;;;;;11.07;5.73;;;;;;;25.46;62.73;96522.28;5066869;28;20621;-76
2022/08/21 07:11:39;;;;;;;11.90;5.83;;;;;;;25.23;62.55;96493.06;5067780;28;20219;-76
2022/08/21 07:15:01;;;;;;;9.97;6.10;;;;;;;25.53;62.18;96516.09;5067310;28;20200;-76
2022/08/21 07:18:22;;;;;;;11.77;5.17;;;;;;;25.72;61.29;96513.00;5065397;28;20200;-76
2022/08/21 07:21:43;;;;;;;10.67;6.33;;;;;;;25.56;62.45;96499.03;5064275;28;20592;-76
2022/08/21 07:25:05;;;;;;;10.80;5.90;;;;;;;25.58;62.08;96489.91;5067189;28;20192;-76
2022/08/21 07:28:25;;;;;;;14.97;6.23;;;;;;;25.49;63.26;96485.63;5067725;28;20181;-75
2022/08/21 07:31:49;;;;;;;10.87;5.93;;;;;;;25.55;61.94;96492.91;5066566;28;20207;-75
2022/08/21 07:35:09;;;;;;;11.80;6.33;;;;;;;25.40;62.79;96486.66;5064565;28;20617;-75
2022/08/21 07:38:30;;;;;;;10.67;6.63;;;;;;;25.22;63.66;96487.94;5070759;28;20637;-76
2022/08/21 07:41:58;;;;;;;10.87;6.17;;;;;;;25.05;63.79;96471.28;5068880;28;20203;-75
2022/08/21 07:45:20;;;;;;;11.10;6.00;;;;;;;24.70;65.13;96461.97;5070091;28;20198;-76
2022/08/21 07:48:41;;;;;;;9.03;6.33;;;;;;;24.71;65.47;96453.00;5066368;28;20228;-76
2022/08/21 07:52:02;;;;;;;12.43;6.70;;;;;;;24.38;65.58;96413.59;5053035;28;20193;-76
2022/08/21 07:55:23;;;;;;;11.57;6.03;;;;;;;24.47;66.13;96444.31;5070644;28;20222;-75
2022/08/21 07:58:04;;;;;;;8.63;6.07;;;;;;;24.49;66.65;96442.31;5068445;28;20226;-74
2022/08/21 08:00:31;;;;;;;8.40;6.20;;;;;;;24.74;66.29;96443.94;5069294;28;20193;-76
2022/08/21 08:02:59;;;;;;;8.70;6.37;;;;;;;25.06;65.22;96443.78;5070644;28;20191;-76
2022/08/21 08:05:29;;;;;;;8.63;5.93;;;;;;;24.92;65.02;96448.00;5067118;28;20295;-75
2022/08/21 08:07:58;;;;;;;10.27;6.23;;;;;;;24.70;65.63;96439.94;5070272;28;20678;-76
2022/08/21 08:10:26;;;;;;;9.37;6.23;;;;;;;24.69;66.03;96441.75;5069718;28;20193;-77
2022/08/21 08:12:56;;;;;;;9.93;7.27;;;;;;;24.92;65.80;96447.16;5069983;28;20739;-76
2022/08/21 08:15:27;;;;;;;9.60;6.03;;;;;;;25.12;64.61;96451.06;5069699;28;20194;-75
2022/08/21 08:17:56;;;;;;;9.67;6.40;;;;;;;25.24;64.37;96441.69;5069550;28;20245;-75
2022/08/21 08:20:28;;;;;;;13.63;7.60;;;;;;;25.41;64.50;96439.81;5070177;28;20191;-76
2022/08/21 08:22:57;;;;;;;14.50;7.00;;;;;;;25.52;64.95;96437.56;5061872;28;20201;-74
2022/08/21 08:25:28;;;;;;;13.67;8.60;;;;;;;25.47;64.86;96420.53;5066969;28;20194;-75
2022/08/21 08:28:08;;;;;;;14.83;8.70;;;;;;;25.67;64.82;96429.66;5068712;28;20200;-76
2022/08/21 08:30:47;;;;;;;16.57;8.07;;;;;;;25.81;64.20;96434.19;5048331;28;20298;-75
2022/08/21 08:33:14;;;;;;;15.87;6.87;;;;;;;25.89;64.54;96430.63;5058325;28;20241;-76
2022/08/21 08:35:46;;;;;;;15.10;7.60;;;;;;;25.95;64.75;96432.56;5069579;28;20193;-76
2022/08/21 08:38:19;;;;;;;12.17;7.30;;;;;;;26.01;65.00;96424.69;5068797;28;20204;-75
2022/08/21 08:41:11;;;;;;;18.97;9.37;;;;;;;26.02;64.19;96428.19;5069471;28;20200;-76
2022/08/21 08:43:42;;;;;;;15.30;7.93;;;;;;;26.13;64.06;96414.53;5068559;28;20192;-75
2022/08/21 08:46:15;;;;;;;13.07;7.30;;;;;;;26.03;63.71;96421.91;5069488;28;20674;-75
2022/08/21 08:49:06;;;;;;;12.83;7.27;;;;;;;26.08;63.80;96420.38;5050256;28;20188;-75
2022/08/21 08:51:53;;;;;;;17.37;8.37;;;;;;;26.21;63.30;96417.09;5070709;28;20676;-76
2022/08/21 08:54:33;;;;;;;10.70;7.70;;;;;;;26.21;63.68;96401.16;5071915;28;20717;-76
2022/08/21 08:57:02;;;;;;;11.97;9.13;;;;;;;26.22;63.61;96410.75;5070415;28;20195;-75
2022/08/21 08:59:40;;;;;;;12.87;10.10;;;;;;;26.25;63.61;96381.22;5090175;28;20239;-75
2022/08/21 09:02:13;;;;;;;11.87;8.20;;;;;;;26.36;63.93;96396.66;5070124;28;20196;-75
2022/08/21 09:04:47;;;;;;;16.13;10.43;;;;;;;26.04;65.38;96389.84;5089631;28;20761;-76
2022/08/21 09:07:44;;;;;;;13.53;8.63;;;;;;;26.22;65.39;96392.19;5089825;28;20671;-75
2022/08/21 09:10:26;;;;;;;16.33;8.67;;;;;;;26.16;67.02;96391.09;5069941;28;20206;-76
2022/08/21 09:13:15;;;;;;;10.03;8.07;;;;;;;26.18;67.64;96385.59;5071880;28;20614;-75
2022/08/21 09:16:14;;;;;;;12.80;9.10;;;;;;;26.17;68.60;96390.06;5089296;28;20226;-76
2022/08/21 09:18:50;;;;;;;13.17;9.23;;;;;;;26.08;69.67;96390.34;5069331;28;20199;-76
2022/08/21 09:21:42;;;;;;;13.50;9.17;;;;;;;26.15;69.26;96385.97;5089461;28;20195;-75
2022/08/21 09:24:51;;;;;;;10.30;8.47;;;;;;;25.82;69.48;96382.78;5088874;28;20212;-75
2022/08/21 09:27:21;;;;;;;12.17;8.97;;;;;;;25.80;68.55;96388.25;5039041;28;20269;-75
2022/08/21 09:29:54;;;;;;;12.90;9.07;;;;;;;25.99;69.84;96386.09;5089327;28;20617;-76
2022/08/21 09:32:27;;;;;;;13.03;8.10;;;;;;;25.98;69.53;96379.13;5053588;28;20220;-75
2022/08/21 09:35:22;;;;;;;12.03;8.30;;;;;;;26.10;68.74;96385.66;5069964;28;20261;-75
2022/08/21 09:37:51;;;;;;;13.93;8.50;;;;;;;26.09;69.14;96392.00;5054711;28;20199;-75
2022/08/21 09:40:32;;;;;;;9.60;7.37;;;;;;;26.08;67.76;96390.34;5087552;28;20234;-76
2022/08/21 09:43:40;;;;;;;13.30;8.03;;;;;;;26.24;66.34;96382.19;5081381;28;20209;-75
2022/08/21 09:47:02;;;;;;;10.10;7.90;;;;;;;26.24;66.83;96383.03;5068006;28;20241;-74
2022/08/21 09:50:34;;;;;;;9.43;7.67;;;;;;;26.32;67.10;96382.94;5065398;28;20856;-77
2022/08/21 09:53:55;;;;;;;10.43;7.37;;;;;;;26.27;66.46;96385.34;5072786;28;20820;-75
2022/08/21 10:00:20;;;;;;;9.60;7.30;;;;;;;26.37;67.46;96377.09;5077361;28;20211;-75
2022/08/21 10:03:13;;;;;;;11.40;7.30;;;;;;;26.43;66.95;96379.84;5086737;28;20244;-76
2022/08/21 10:05:58;;;;;;;10.37;7.67;;;;;;;26.52;66.37;96375.25;5087288;28;20289;-74
2022/08/21 10:08:28;;;;;;;10.87;7.10;;;;;;;26.57;65.99;96378.16;5088432;28;20213;-75
2022/08/21 10:11:14;;;;;;;9.97;6.53;;;;;;;26.48;65.36;96376.63;5086512;28;20200;-75
2022/08/21 10:13:44;;;;;;;11.07;7.17;;;;;;;26.72;64.29;96375.50;5069736;28;20589;-75
2022/08/21 10:16:16;;;;;;;8.70;6.37;;;;;;;26.74;63.08;96381.47;5087665;28;20664;-74
2022/08/21 10:19:47;;;;;;;10.00;6.33;;;;;;;26.82;62.52;96368.06;5050735;28;20205;-75
2022/08/21 10:22:46;;;;;;;10.20;7.33;;;;;;;27.01;62.55;96373.63;5036635;28;20201;-75
2022/08/21 10:25:19;;;;;;;9.07;6.73;;;;;;;26.98;62.01;96378.47;5067621;28;20201;-75
2022/08/21 10:28:01;;;;;;;12.07;6.80;;;;;;;26.88;62.66;96364.66;5085301;28;20849;-75
2022/08/21 10:30:39;;;;;;;10.23;6.30;;;;;;;26.94;61.39;96372.72;5067696;28;20227;-75
2022/08/21 10:33:28;;;;;;;11.87;6.73;;;;;;;27.03;61.13;96376.91;5048706;28;20217;-76
2022/08/21 10:35:58;;;;;;;13.30;7.30;;;;;;;26.99;59.95;96373.00;5066557;28;20275;-75
2022/08/21 10:38:52;;;;;;;11.00;6.67;;;;;;;27.00;60.16;96371.13;5075525;28;20197;-75
2022/08/21 10:42:15;;;;;;;10.33;6.63;;;;;;;26.90;59.05;96378.59;5086428;28;20208;-74
2022/08/21 10:45:12;;;;;;;10.37;5.50;;;;;;;26.81;58.65;96372.56;5032350;28;20231;-75
2022/08/21 10:47:46;;;;;;;13.43;6.80;;;;;;;26.98;58.30;96373.16;5067366;28;20324;-76
2022/08/21 10:50:38;;;;;;;11.33;6.23;;;;;;;27.07;58.27;96370.22;5065694;28;20760;-75
2022/08/21 10:53:28;;;;;;;10.03;5.73;;;;;;;27.06;58.06;96363.25;5048145;28;20225;-74
2022/08/21 10:56:12;;;;;;;15.97;6.70;;;;;;;27.16;58.14;96369.06;5067309;28;20186;-75
2022/08/21 10:58:59;;;;;;;15.77;6.37;;;;;;;27.01;56.66;96340.91;5065963;28;20185;-77
2022/08/21 11:01:33;;;;;;;15.77;6.67;;;;;;;27.08;57.79;96365.72;5066976;28;20181;-75
2022/08/21 11:04:11;;;;;;;7.30;5.70;;;;;;;27.06;57.66;96360.56;5067100;28;20750;-76
2022/08/21 11:06:47;;;;;;;14.40;6.50;;;;;;;27.06;57.21;96360.56;5065862;28;20185;-74
2022/08/21 11:09:21;;;;;;;9.67;5.90;;;;;;;27.10;56.43;96355.72;5069668;28;20532;-75
2022/08/21 11:12:01;;;;;;;8.70;5.70;;;;;;;27.15;56.36;96363.94;5052793;28;20208;-77
2022/08/21 11:15:00;;;;;;;12.77;6.40;;;;;;;27.25;56.44;96352.00;5039623;28;20221;-75
2022/08/21 11:17:41;;;;;;;11.10;5.60;;;;;;;27.43;55.29;96354.22;5071250;28;20247;-75
2022/08/21 11:20:16;;;;;;;13.97;5.90;;;;;;;27.37;56.78;96337.19;5070110;28;20192;-75
2022/08/21 11:22:54;;;;;;;9.30;6.00;;;;;;;27.39;57.91;96345.81;5053223;28;20185;-73
2022/08/21 11:25:29;;;;;;;11.07;6.43;;;;;;;27.37;57.46;96342.50;5070649;28;20244;-74
2022/08/21 11:28:15;;;;;;;13.90;7.27;;;;;;;27.14;57.32;96325.09;5069527;28;20193;-74
2022/08/21 11:31:02;;;;;;;15.73;8.03;;;;;;;27.21;57.10;96332.09;5071354;28;20189;-74
2022/08/21 11:33:32;;;;;;;11.07;5.70;;;;;;;27.28;57.45;96333.00;5051773;28;20224;-74
2022/08/21 11:36:33;;;;;;;12.10;6.50;;;;;;;27.27;57.28;96322.53;5052246;28;20189;-76
2022/08/21 11:39:33;;;;;;;8.03;6.13;;;;;;;27.38;55.36;96322.91;5031941;28;20201;-75
2022/08/21 11:42:22;;;;;;;9.40;6.20;;;;;;;27.44;55.52;96321.31;5069786;28;20185;-74
2022/08/21 11:44:56;;;;;;;10.07;5.60;;;;;;;27.54;53.65;96323.63;5070042;28;20197;-76
2022/08/21 11:47:50;;;;;;;8.20;4.77;;;;;;;27.62;53.50;96320.81;5053233;28;20181;-74
2022/08/21 11:50:31;;;;;;;7.13;5.53;;;;;;;27.50;54.19;96317.88;5069626;28;20219;-75
2022/08/21 11:53:29;;;;;;;11.40;5.47;;;;;;;27.52;53.88;96315.00;5070230;28;20232;-75
2022/08/21 11:56:21;;;;;;;11.60;5.27;;;;;;;27.62;52.05;96304.84;5052906;28;20190;-76
2022/08/21 11:59:16;;;;;;;5.87;4.93;;;;;;;27.65;51.87;96307.13;5070736;28;20201;-76
2022/08/21 12:01:48;;;;;;;6.40;4.87;;;;;;;27.73;51.20;96309.66;5070519;28;20243;-75
2022/08/21 12:04:32;;;;;;;6.20;4.47;;;;;;;27.75;50.57;96302.28;5070702;28;20193;-74
2022/08/21 12:07:13;;;;;;;6.63;4.60;;;;;;;27.71;49.90;96296.56;5051653;28;20189;-75
2022/08/21 12:09:53;;;;;;;13.33;4.67;;;;;;;27.71;49.55;96291.22;5071659;28;20254;-74
2022/08/21 12:12:29;;;;;;;10.57;4.53;;;;;;;27.69;49.68;96290.59;5052406;28;20205;-75
2022/08/21 12:15:20;;;;;;;9.23;4.53;;;;;;;27.81;49.66;96286.38;5070984;28;20224;-74
2022/08/21 12:17:55;;;;;;;6.37;4.23;;;;;;;27.73;50.13;96283.03;5072269;28;20224;-75
2022/08/21 12:20:37;;;;;;;8.27;4.93;;;;;;;27.85;50.51;96271.66;5074795;28;20242;-74
2022/08/21 12:23:09;;;;;;;5.40;4.90;;;;;;;27.81;50.42;96280.22;5081155;28;20211;-74
2022/08/21 12:25:42;;;;;;;8.60;4.90;;;;;;;27.80;50.70;96278.59;5075324;28;20166;-75
2022/08/21 12:28:31;;;;;;;5.33;4.60;;;;;;;27.79;51.18;96279.59;5085008;28;20186;-74
2022/08/21 12:30:59;;;;;;;6.40;4.50;;;;;;;27.65;51.63;96275.22;5078798;28;20235;-73
2022/08/21 12:33:30;;;;;;;5.43;4.27;;;;;;;27.61;52.24;96284.59;5058961;28;20224;-75
2022/08/21 12:36:44;;;;;;;6.90;4.33;;;;;;;27.61;52.07;96293.41;5090034;28;20193;-74
2022/08/21 12:39:23;;;;;;;7.73;4.77;;;;;;;27.53;52.61;96282.09;5026859;28;20197;-75
2022/08/21 12:42:06;;;;;;;6.07;4.60;;;;;;;27.55;52.28;96272.06;5051202;28;20666;-75
2022/08/21 12:44:42;;;;;;;6.60;4.97;;;;;;;27.60;52.34;96281.09;5052107;28;20246;-75
2022/08/21 12:47:50;;;;;;;7.37;5.67;;;;;;;27.77;52.70;96290.44;5052145;28;20200;-77
2022/08/21 12:50:35;;;;;;;8.87;5.60;;;;;;;27.54;53.80;96289.03;5067830;28;20217;-75
2022/08/21 12:53:19;;;;;;;7.07;4.73;;;;;;;27.20;53.31;96287.91;5069854;28;20225;-73
2022/08/21 12:55:48;;;;;;;7.97;4.47;;;;;;;27.03;51.74;96257.31;5069780;28;20189;-76
2022/08/21 12:58:21;;;;;;;8.10;3.93;;;;;;;27.13;52.92;96284.38;5052015;28;20189;-75
2022/08/21 13:01:02;;;;;;;7.17;4.13;;;;;;;27.13;53.05;96292.34;5069614;28;20707;-74
2022/08/21 13:03:35;;;;;;;6.43;4.43;;;;;;;27.15;53.08;96295.66;5068236;28;20194;-77
2022/08/21 13:06:04;;;;;;;5.63;4.03;;;;;;;27.05;52.82;96279.19;5069110;28;20195;-75
2022/08/21 13:08:36;;;;;;;8.77;4.43;;;;;;;27.15;52.30;96279.69;5050655;28;20205;-75
2022/08/21 13:11:15;;;;;;;11.50;4.60;;;;;;;27.32;53.41;96286.41;5067955;28;20282;-75
2022/08/21 13:14:01;;;;;;;7.70;4.50;;;;;;;27.39;52.23;96289.94;5069091;28;20252;-75
2022/08/21 13:16:31;;;;;;;5.60;4.10;;;;;;;27.36;51.38;96284.19;5067775;28;20662;-75
2022/08/21 13:19:06;;;;;;;5.20;3.87;;;;;;;27.35;51.93;96285.19;5051003;28;20193;-74
2022/08/21 13:21:42;;;;;;;6.77;4.27;;;;;;;27.08;51.96;96289.44;5068898;28;20177;-75
2022/08/21 13:24:22;;;;;;;6.93;4.67;;;;;;;26.95;53.12;96289.31;5067850;28;20193;-75
2022/08/21 13:27:20;;;;;;;6.83;4.63;;;;;;;26.87;53.84;96276.16;5069189;28;20276;-74
2022/08/21 13:30:00;;;;;;;5.13;4.30;;;;;;;26.96;54.27;96292.78;5067893;28;20275;-75
2022/08/21 13:32:31;;;;;;;7.10;4.77;;;;;;;27.13;53.72;96286.22;5049018;28;20266;-74
2022/08/21 13:35:06;;;;;;;5.30;4.80;;;;;;;27.21;53.63;96289.56;5050963;28;20274;-75
2022/08/21 13:37:35;;;;;;;7.77;4.83;;;;;;;27.30;53.85;96287.59;5067070;28;20208;-74
2022/08/21 13:40:06;;;;;;;8.63;4.77;;;;;;;27.26;54.48;96287.16;5068978;28;20189;-75
2022/08/21 13:42:33;;;;;;;7.50;5.13;;;;;;;26.99;54.21;96276.47;5067433;28;20199;-75
2022/08/21 13:45:02;;;;;;;7.50;5.10;;;;;;;26.68;55.08;96275.91;5069541;28;20196;-75
2022/08/21 13:47:31;;;;;;;9.40;5.07;;;;;;;26.63;55.23;96283.63;5080716;28;20200;-74
2022/08/21 13:49:59;;;;;;;6.13;4.30;;;;;;;26.68;55.58;96276.75;5050955;28;20204;-73
2022/08/21 13:52:27;;;;;;;6.90;4.50;;;;;;;26.74;54.28;96264.56;5080711;28;20251;-73
2022/08/21 13:55:12;;;;;;;5.60;4.63;;;;;;;26.87;54.57;96276.16;5086907;28;20638;-74
2022/08/21 13:57:39;;;;;;;7.80;5.27;;;;;;;26.72;54.42;96271.91;5071264;28;20234;-71
2022/08/21 14:00:24;;;;;;;7.00;5.10;;;;;;;26.78;54.37;96274.63;5086457;28;20201;-75
2022/08/21 14:02:54;;;;;;;7.27;4.80;;;;;;;26.76;54.52;96263.38;5067722;28;20450;-71
2022/08/21 14:05:24;;;;;;;7.00;4.90;;;;;;;26.83;54.97;96264.22;5067680;28;20276;-73
2022/08/21 14:08:02;;;;;;;5.77;4.50;;;;;;;26.83;54.54;96253.59;5075679;28;20262;-72
2022/08/21 14:10:30;;;;;;;5.87;4.40;;;;;;;26.96;53.93;96258.22;5070552;28;20184;-72
2022/08/21 14:13:07;;;;;;;9.80;5.03;;;;;;;26.89;53.80;96258.19;5078191;28;20200;-74